Elation — 3FOC5 — position and weather

sailwx.info

Track history (hours):
 
Tides and Currents Weather Stations Pressure Air Temp Water Temp Dewpoint Dewpoint Depression Visibility Wind Speed Wind Dir Waves Ship Positions

Elation

Operator: Carnival Cruise Lines

Last reported at 2020-Oct-27 10:37 UTC. Time now 2020-Oct-28 04:47 UTC.
Position N 25°26' W 076°11'.

Type: Passenger vessel. MMSI: 355831000.

Date/timePositionNaut miles runAvg speedWind from/ knotsBaromVisibWave heightAir tempDewpointWater temp
2020-Oct-27 10:37N 25°26' W 076°11'1 5.2
2020-Oct-27 10:29N 25°26' W 076°12'5 5.2
2020-Oct-27 09:30N 25°29' W 076°17'  
2020-Oct-24 18:00N 26°04' W 079°31'11 7.2
2020-Oct-24 16:30N 25°55' W 079°38'13 5.2
2020-Oct-24 14:00N 25°46' W 079°49'8 4.0
2020-Oct-24 12:00N 25°51' W 079°42'4 4.0
2020-Oct-24 11:00N 25°53' W 079°38'4 4.1
2020-Oct-24 10:00N 25°55' W 079°34'36 1.0
2020-Oct-22 22:13N 26°30' W 079°24'25 6.8
2020-Oct-22 18:30N 26°06' W 079°31'3 6.9
2020-Oct-22 18:00N 26°02' W 079°31'20 6.7
2020-Oct-22 15:00N 25°49' W 079°48'3 5.3
2020-Oct-22 14:30N 25°48' W 079°51'1 2.0
2020-Oct-22 14:00N 25°47' W 079°50'13 4.4
2020-Oct-22 11:00N 25°53' W 079°37'3 5.0
2020-Oct-22 10:30N 25°55' W 079°35'17 6.6
2020-Oct-22 08:00N 26°04' W 079°19'4 7.6
2020-Oct-22 07:28N 26°06' W 079°15'8 7.8
2020-Oct-22 06:28N 26°10' W 079°08'  
2020-Oct-18 20:57N 26°22' W 079°24'26 6.6
2020-Oct-18 17:00N 25°58' W 079°36'8 1.2
2020-Oct-18 10:00N 25°55' W 079°27'2 3.8
2020-Oct-18 09:30N 25°56' W 079°26'  
Track history (hours):
 
Tides and Currents Weather Stations Pressure Air Temp Water Temp Dewpoint Dewpoint Depression Visibility Wind Speed Wind Dir Waves Ship Positions

Elation

Operator: Carnival Cruise Lines

Last reported at 2020-Oct-27 10:37 UTC. Time now 2020-Oct-28 04:47 UTC.
Position N 25°26' W 076°11'.

Type: Passenger vessel. MMSI: 355831000.

Date/timePositionNaut miles runAvg speedWind from/ knotsBaromVisibWave heightAir tempDewpointWater temp
2020-Oct-27 10:37N 25°26' W 076°11'1 5.2
2020-Oct-27 10:29N 25°26' W 076°12'5 5.2
2020-Oct-27 09:30N 25°29' W 076°17'  
2020-Oct-24 18:00N 26°04' W 079°31'11 7.2
2020-Oct-24 16:30N 25°55' W 079°38'13 5.2
2020-Oct-24 14:00N 25°46' W 079°49'8 4.0
2020-Oct-24 12:00N 25°51' W 079°42'4 4.0
2020-Oct-24 11:00N 25°53' W 079°38'4 4.1
2020-Oct-24 10:00N 25°55' W 079°34'36 1.0
2020-Oct-22 22:13N 26°30' W 079°24'25 6.8
2020-Oct-22 18:30N 26°06' W 079°31'3 6.9
2020-Oct-22 18:00N 26°02' W 079°31'20 6.7
2020-Oct-22 15:00N 25°49' W 079°48'3 5.3
2020-Oct-22 14:30N 25°48' W 079°51'1 2.0
2020-Oct-22 14:00N 25°47' W 079°50'13 4.4
2020-Oct-22 11:00N 25°53' W 079°37'3 5.0
2020-Oct-22 10:30N 25°55' W 079°35'17 6.6
2020-Oct-22 08:00N 26°04' W 079°19'4 7.6
2020-Oct-22 07:28N 26°06' W 079°15'8 7.8
2020-Oct-22 06:28N 26°10' W 079°08'  
2020-Oct-18 20:57N 26°22' W 079°24'26 6.6
2020-Oct-18 17:00N 25°58' W 079°36'8 1.2
2020-Oct-18 10:00N 25°55' W 079°27'2 3.8
2020-Oct-18 09:30N 25°56' W 079°26'  

Dump ship's entire track history